Home   Weather   USA   Brownsville   Past weeks
Flag for USA

Past Weather in Brownsville, Texas, USA — February 2021

Currently: 71 °F. Clear. (Weather station: Brownsville / South Padre Island International Airport, USA). See more current weather

February 2021 Weather in Brownsville — Graph

°F

High & Low Weather Summary for February 2021

 TemperatureHumidityPressure
High86 °F (Feb 28, 12:53 pm)97% (Feb 7, 6:56 am)30.59 "Hg (Feb 7, 6:56 am)
Low28 °F (Feb 15, 5:53 am)31% (Feb 1, 2:53 pm)29.72 "Hg (Feb 4, 3:53 pm)
Average62 °F79%30.00 "Hg
* Reported Feb 1 12:53 am — Feb 28 11:53 pm, Brownsville. Weather by CustomWeather, © 2022

Note: Actual official high and low records may vary slightly from our data, if they occured in-between our weather recording intervals... More about our weather records

Brownsville Weather History for February 1, 2021

Scroll right to see more
 ConditionsComfort  
Time TempWeatherWind HumidityBarometerVisibility
12:53 am
Mon, Feb 1
62 °FClear.8 mph52%30.31 "Hg10 mi
1:53 am60 °FClear.8 mph58%30.31 "Hg10 mi
2:53 am60 °FClear.8 mph60%30.31 "Hg10 mi
3:53 am59 °FClear.9 mph64%30.31 "Hg10 mi
4:53 am59 °FClear.9 mph62%30.32 "Hg10 mi
5:53 am58 °FClear.9 mph65%30.34 "Hg10 mi
6:53 am58 °FClear.9 mph62%30.36 "Hg10 mi
7:53 am57 °FSunny.7 mph64%30.39 "Hg10 mi
8:53 am61 °FSunny.10 mph56%30.42 "Hg10 mi
9:53 am64 °FSunny.14 mph49%30.43 "Hg10 mi
10:53 am66 °FSunny.14 mph42%30.42 "Hg10 mi
11:53 am68 °FSunny.13 mph40%30.41 "Hg10 mi
12:53 pm68 °FSunny.16 mph39%30.37 "Hg10 mi
1:53 pm68 °FSunny.14 mph36%30.34 "Hg10 mi
2:53 pm69 °FSunny.10 mph31%30.32 "Hg10 mi
3:53 pm68 °FSunny.13 mph31%30.31 "Hg10 mi
4:53 pm65 °FSunny.13 mph39%30.31 "Hg10 mi
5:53 pm60 °FSunny.8 mph53%30.31 "Hg10 mi
6:53 pm56 °FClear.6 mph65%30.31 "Hg10 mi
7:53 pm54 °FClear.5 mph72%30.32 "Hg10 mi
8:53 pm53 °FClear.3 mph72%30.32 "Hg10 mi
9:53 pm51 °FClear.5 mph77%30.32 "Hg10 mi
10:53 pm49 °FClear.3 mph80%30.32 "Hg10 mi
11:53 pm49 °FClear.No wind77%30.30 "Hg10 mi
Weather by CustomWeather, © 2022

See weather overview